createdAt,value
2016-12-09T00:00:04.581Z,0
2016-12-09T00:05:04.936Z,0
2016-12-09T00:10:04.619Z,0
2016-12-09T00:15:04.933Z,0
2016-12-09T00:20:04.452Z,0
2016-12-09T00:25:04.051Z,0
2016-12-09T00:30:04.267Z,0
2016-12-09T00:35:04.737Z,0
2016-12-09T00:40:04.964Z,0
2016-12-09T00:45:04.126Z,0
2016-12-09T00:50:04.436Z,0
2016-12-09T00:55:05.073Z,0
2016-12-09T01:00:04.677Z,0
2016-12-09T01:05:04.176Z,0
2016-12-09T01:10:04.216Z,0
2016-12-09T01:15:04.431Z,0
2016-12-09T01:20:04.535Z,0
2016-12-09T01:25:04.748Z,0
2016-12-09T01:30:04.856Z,0
2016-12-09T01:35:04.110Z,0
2016-12-09T01:40:04.655Z,0
2016-12-09T01:45:04.177Z,0
2016-12-09T01:50:04.140Z,0
2016-12-09T01:55:04.632Z,0
2016-12-09T02:00:04.250Z,0
2016-12-09T02:05:04.470Z,0
2016-12-09T02:10:04.882Z,0
2016-12-09T02:15:04.352Z,0
2016-12-09T02:20:05.133Z,0
2016-12-09T02:25:04.701Z,0
2016-12-09T02:30:03.975Z,0
2016-12-09T02:35:04.819Z,0
2016-12-09T02:40:04.557Z,0
2016-12-09T02:45:04.313Z,0
2016-12-09T02:50:04.684Z,0
2016-12-09T02:55:04.292Z,0
2016-12-09T03:00:05.055Z,0
2016-12-09T03:05:06.007Z,0
2016-12-09T03:10:04.166Z,0
2016-12-09T03:15:04.797Z,0
2016-12-09T03:20:04.317Z,0
2016-12-09T03:25:04.191Z,0
2016-12-09T03:30:04.659Z,0
2016-12-09T03:35:04.809Z,0
2016-12-09T03:40:04.405Z,0
2016-12-09T03:45:04.153Z,0
2016-12-09T03:50:04.506Z,0
2016-12-09T03:55:04.543Z,0
2016-12-09T04:00:04.492Z,0
2016-12-09T04:05:05.003Z,0
2016-12-09T04:10:04.247Z,0
2016-12-09T04:15:04.069Z,0
2016-12-09T04:20:04.165Z,0
2016-12-09T04:25:04.309Z,0
2016-12-09T04:30:04.243Z,0
2016-12-09T04:35:04.696Z,0
2016-12-09T04:40:04.446Z,0
2016-12-09T04:45:04.851Z,0
2016-12-09T04:50:04.928Z,0
2016-12-09T04:55:04.288Z,0
2016-12-09T05:00:04.634Z,0
2016-12-09T05:05:04.047Z,0
2016-12-09T05:10:04.991Z,0
2016-12-09T05:15:04.277Z,0
2016-12-09T05:20:04.992Z,0
2016-12-09T05:25:04.500Z,0
2016-12-09T05:30:04.149Z,0
2016-12-09T05:35:04.600Z,0
2016-12-09T05:40:04.437Z,0
2016-12-09T05:45:04.569Z,0
2016-12-09T05:50:04.796Z,0
2016-12-09T05:55:04.145Z,0
2016-12-09T06:00:04.763Z,0
2016-12-09T06:05:04.038Z,0
2016-12-09T06:10:04.468Z,0
2016-12-09T06:15:04.824Z,0
2016-12-09T06:20:04.338Z,0
2016-12-09T06:25:04.775Z,0
2016-12-09T06:30:05.041Z,0
2016-12-09T06:35:04.531Z,0
2016-12-09T06:40:04.420Z,0
2016-12-09T06:45:03.931Z,0
2016-12-09T06:50:04.097Z,1
2016-12-09T06:55:04.195Z,2
2016-12-09T07:00:04.343Z,2
2016-12-09T07:05:04.803Z,7
2016-12-09T07:10:04.659Z,18
2016-12-09T07:15:04.615Z,36
2016-12-09T07:20:04.749Z,44
2016-12-09T07:25:04.276Z,44
2016-12-09T07:30:03.961Z,70
2016-12-09T07:35:04.747Z,92
2016-12-09T07:40:04.164Z,121
2016-12-09T07:45:04.640Z,250
2016-12-09T07:50:04.729Z,185
2016-12-09T07:55:05.018Z,219
2016-12-09T08:00:04.591Z,289
2016-12-09T08:05:04.891Z,296
2016-12-09T08:10:04.855Z,289
2016-12-09T08:15:04.434Z,358
2016-12-09T08:20:04.225Z,494
2016-12-09T08:25:04.946Z,537
2016-12-09T08:30:04.890Z,625
2016-12-09T08:35:04.971Z,867
2016-12-09T08:40:04.191Z,840
2016-12-09T08:45:04.088Z,1000
2016-12-09T08:50:04.273Z,1000
2016-12-09T08:55:04.378Z,1000
2016-12-09T09:00:04.273Z,1000
2016-12-09T09:05:04.633Z,1000
2016-12-09T09:10:04.597Z,2000
2016-12-09T09:15:04.113Z,2000
2016-12-09T09:20:04.051Z,1000
2016-12-09T09:25:04.332Z,1000
2016-12-09T09:30:04.094Z,1000
2016-12-09T09:35:04.551Z,2000
2016-12-09T09:40:04.051Z,1000
2016-12-09T09:45:04.271Z,1000
2016-12-09T09:50:04.179Z,1000
2016-12-09T09:55:04.503Z,1000
2016-12-09T10:00:04.641Z,2000
2016-12-09T10:05:04.601Z,1000
2016-12-09T10:10:04.760Z,2000
2016-12-09T10:15:04.945Z,2000
2016-12-09T10:20:04.243Z,1000
2016-12-09T10:25:04.448Z,1000
2016-12-09T10:30:04.571Z,1000
2016-12-09T10:35:04.353Z,1000
2016-12-09T10:40:04.534Z,1000
2016-12-09T10:45:04.624Z,1000
2016-12-09T10:50:05.064Z,1000
2016-12-09T10:55:04.722Z,1000
2016-12-09T11:00:04.196Z,1000
2016-12-09T11:05:04.374Z,1000
2016-12-09T11:10:04.105Z,1000
2016-12-09T11:15:04.326Z,2000
2016-12-09T11:20:05.044Z,2000
2016-12-09T11:25:04.955Z,1000
2016-12-09T11:30:04.871Z,2000
2016-12-09T11:35:04.457Z,2000
2016-12-09T11:40:04.368Z,1000
2016-12-09T11:45:04.589Z,2000
2016-12-09T11:50:04.869Z,1000
2016-12-09T11:55:04.180Z,1000
2016-12-09T12:00:04.567Z,2000
2016-12-09T12:05:04.868Z,1000
2016-12-09T12:10:04.283Z,3000
2016-12-09T12:15:04.368Z,3000
2016-12-09T12:20:04.974Z,2000
2016-12-09T12:25:05.010Z,2000
2016-12-09T12:30:04.445Z,1000
2016-12-09T12:35:04.610Z,1000
2016-12-09T12:40:04.563Z,991
2016-12-09T12:45:04.856Z,1000
2016-12-09T12:50:03.978Z,1000
2016-12-09T12:55:04.737Z,1000
2016-12-09T13:00:04.712Z,1000
2016-12-09T13:05:04.813Z,990
2016-12-09T13:10:05.085Z,1000
2016-12-09T13:15:04.203Z,1000
2016-12-09T13:20:04.242Z,1000
2016-12-09T13:25:04.893Z,1000
2016-12-09T13:30:04.151Z,1000
2016-12-09T13:35:04.329Z,1000
2016-12-09T13:40:04.744Z,2000
2016-12-09T13:45:04.731Z,1000
2016-12-09T13:50:04.588Z,1000
2016-12-09T13:55:04.906Z,1000
2016-12-09T14:00:04.522Z,1000
2016-12-09T14:05:04.752Z,1000
2016-12-09T14:10:04.955Z,1000
2016-12-09T14:15:04.620Z,1000
2016-12-09T14:20:04.118Z,2000
2016-12-09T14:25:04.123Z,2000
2016-12-09T14:30:04.134Z,1000
2016-12-09T14:35:04.552Z,1000
2016-12-09T14:40:04.866Z,1000
2016-12-09T14:45:04.878Z,1000
2016-12-09T14:50:04.895Z,1000
2016-12-09T14:55:04.721Z,1000
2016-12-09T15:00:04.375Z,881
2016-12-09T15:05:04.149Z,740
2016-12-09T15:10:04.287Z,665
2016-12-09T15:15:04.804Z,420
2016-12-09T15:20:04.659Z,314
2016-12-09T15:25:05.127Z,184
2016-12-09T15:30:04.264Z,124
2016-12-09T15:35:04.369Z,63
2016-12-09T15:40:04.327Z,50
2016-12-09T15:45:04.335Z,41
2016-12-09T15:50:04.357Z,27
2016-12-09T15:55:04.548Z,9
2016-12-09T16:00:04.442Z,3
2016-12-09T16:05:04.878Z,2
2016-12-09T16:10:04.773Z,1
2016-12-09T16:15:04.007Z,0
2016-12-09T16:20:04.269Z,0
2016-12-09T16:25:04.803Z,0
2016-12-09T16:30:04.571Z,0
2016-12-09T16:35:04.816Z,0
2016-12-09T16:40:04.824Z,0
2016-12-09T16:45:04.844Z,0
2016-12-09T16:50:04.559Z,0
2016-12-09T16:55:04.477Z,0
2016-12-09T17:00:04.642Z,0
2016-12-09T17:05:04.709Z,0
2016-12-09T17:10:04.105Z,0
2016-12-09T17:15:04.026Z,0
2016-12-09T17:20:04.106Z,0
2016-12-09T17:25:04.130Z,0
2016-12-09T17:30:04.061Z,0
2016-12-09T17:35:09.064Z,0
2016-12-09T17:40:04.269Z,0
2016-12-09T17:45:04.999Z,0
2016-12-09T17:50:04.994Z,0
2016-12-09T17:55:04.663Z,0
2016-12-09T18:00:04.488Z,0
2016-12-09T18:05:04.402Z,0
2016-12-09T18:10:04.863Z,0
2016-12-09T18:15:04.508Z,0
2016-12-09T18:20:04.903Z,0
2016-12-09T18:25:04.557Z,0
2016-12-09T18:30:04.743Z,0
2016-12-09T18:35:04.869Z,0
2016-12-09T18:40:04.122Z,0
2016-12-09T18:45:04.641Z,0
2016-12-09T18:50:03.889Z,0
2016-12-09T18:55:04.547Z,0
2016-12-09T19:00:04.330Z,0
2016-12-09T19:05:05.162Z,0
2016-12-09T19:10:04.030Z,0
2016-12-09T19:15:04.492Z,0
2016-12-09T19:20:04.869Z,0
2016-12-09T19:25:04.598Z,0
2016-12-09T19:30:04.595Z,0
2016-12-09T19:35:04.920Z,0
2016-12-09T19:40:04.927Z,0
2016-12-09T19:45:04.867Z,0
2016-12-09T19:50:04.388Z,0
2016-12-09T19:55:04.949Z,0
2016-12-09T20:00:04.569Z,0
2016-12-09T20:05:04.778Z,0
2016-12-09T20:10:04.892Z,0
2016-12-09T20:15:04.755Z,0
2016-12-09T20:20:04.919Z,0
2016-12-09T20:25:04.408Z,0
2016-12-09T20:30:05.171Z,0
2016-12-09T20:35:04.671Z,0
2016-12-09T20:40:05.124Z,0
2016-12-09T20:45:04.193Z,0
2016-12-09T20:50:04.390Z,0
2016-12-09T20:55:04.554Z,0
2016-12-09T21:00:04.175Z,0
2016-12-09T21:05:04.642Z,0
2016-12-09T21:10:04.997Z,0
2016-12-09T21:15:05.071Z,0
2016-12-09T21:20:04.590Z,0
2016-12-09T21:25:04.751Z,0
2016-12-09T21:30:04.381Z,0
2016-12-09T21:35:04.851Z,0
2016-12-09T21:40:04.466Z,0
2016-12-09T21:45:04.590Z,0
2016-12-09T21:50:04.289Z,0
2016-12-09T21:55:04.177Z,0
2016-12-09T22:00:04.892Z,0
2016-12-09T22:05:04.668Z,0
2016-12-09T22:10:04.216Z,0
2016-12-09T22:15:04.734Z,0
2016-12-09T22:20:04.988Z,0
2016-12-09T22:25:04.305Z,0
2016-12-09T22:30:04.388Z,0
2016-12-09T22:35:04.754Z,0
2016-12-09T22:40:04.145Z,0
2016-12-09T22:45:05.020Z,0
2016-12-09T22:50:04.321Z,0
2016-12-09T22:55:04.559Z,0
2016-12-09T23:00:04.193Z,0
2016-12-09T23:05:04.455Z,0
2016-12-09T23:10:04.309Z,0
2016-12-09T23:15:04.592Z,0
2016-12-09T23:20:04.156Z,0
2016-12-09T23:25:04.777Z,0
2016-12-09T23:30:04.009Z,0
2016-12-09T23:35:04.092Z,0
2016-12-09T23:40:04.890Z,0
2016-12-09T23:45:04.293Z,0
2016-12-09T23:50:04.608Z,0
2016-12-09T23:55:04.307Z,0
